RYR9437 LERS-EDLV
Flight info
| Callsign | RYR9437 |
|---|---|
| Flight time | 1h 35m |
| Altitude | 36000 |
| Route | NATPI DCT NASEP DCT ENUPA DCT RLP DCT ROUSY DCT MILGI DCT LMA |
| Aircraft | B738/M-SDE2E3FGHIRWXY/LB1 |
Departure
| Time | 2026-05-09 18:05 |
|---|---|
| Airport | Reus Airport (LERS) |
Arrival
| Time | 2026-05-09 19:40 |
|---|---|
| Airport | Weeze (Niederrhein) Airport (EDLV) |
| Time | Latitude | Longitude | Altitude | Speed | Heading |
|---|---|---|---|---|---|
| 2026-05-09 17:37 | 41.14757 | 1.15872 | 240 ft | 0 kts | 337° |
| 2026-05-09 17:38 | 41.14756 | 1.15872 | 240 ft | 0 kts | 337° |
| 2026-05-09 17:38 | 41.14757 | 1.15872 | 240 ft | 0 kts | 337° |
| 2026-05-09 17:57 | 41.14715 | 1.15893 | 241 ft | 2 kts | 339° |
| 2026-05-09 17:57 | 41.14696 | 1.15907 | 241 ft | 4 kts | 301° |
| 2026-05-09 17:57 | 41.14691 | 1.15939 | 241 ft | 4 kts | 258° |
| 2026-05-09 17:57 | 41.14695 | 1.15958 | 241 ft | 1 kts | 249° |
| 2026-05-09 17:59 | 41.14694 | 1.15957 | 241 ft | 1 kts | 249° |
| 2026-05-09 18:00 | 41.14687 | 1.15931 | 241 ft | 7 kts | 249° |
| 2026-05-09 18:00 | 41.14659 | 1.15834 | 241 ft | 15 kts | 249° |
| 2026-05-09 18:00 | 41.14615 | 1.15686 | 241 ft | 19 kts | 249° |
| 2026-05-09 18:00 | 41.14578 | 1.15578 | 241 ft | 4 kts | 225° |
| 2026-05-09 18:01 | 41.14550 | 1.15566 | 241 ft | 5 kts | 177° |
| 2026-05-09 18:01 | 41.14524 | 1.15575 | 241 ft | 0 kts | 161° |
| 2026-05-09 18:02 | 41.14519 | 1.15577 | 241 ft | 2 kts | 161° |
| 2026-05-09 18:02 | 41.14516 | 1.15578 | 241 ft | 0 kts | 161° |
| 2026-05-09 18:03 | 41.14513 | 1.15580 | 241 ft | 2 kts | 159° |
| 2026-05-09 18:04 | 41.14478 | 1.15597 | 241 ft | 7 kts | 159° |
| 2026-05-09 18:04 | 41.14434 | 1.15634 | 241 ft | 8 kts | 110° |
| 2026-05-09 18:04 | 41.14449 | 1.15723 | 241 ft | 17 kts | 69° |
| 2026-05-09 18:04 | 41.14583 | 1.16184 | 241 ft | 90 kts | 69° |
| 2026-05-09 18:05 | 41.14894 | 1.17241 | 243 ft | 153 kts | 68° |
| 2026-05-09 18:05 | 41.15311 | 1.18667 | 732 ft | 169 kts | 69° |
| 2026-05-09 18:05 | 41.15727 | 1.20101 | 1697 ft | 164 kts | 68° |
| 2026-05-09 18:05 | 41.16160 | 1.21500 | 2491 ft | 171 kts | 67° |
| 2026-05-09 18:06 | 41.16631 | 1.23099 | 2905 ft | 197 kts | 68° |
| 2026-05-09 18:06 | 41.17170 | 1.24855 | 3339 ft | 217 kts | 67° |
| 2026-05-09 18:06 | 41.17760 | 1.26809 | 3580 ft | 238 kts | 67° |
| 2026-05-09 18:06 | 41.18393 | 1.28909 | 4202 ft | 253 kts | 68° |
| 2026-05-09 18:07 | 41.19050 | 1.31086 | 5075 ft | 256 kts | 68° |
| 2026-05-09 18:07 | 41.19722 | 1.33306 | 5923 ft | 261 kts | 67° |
| 2026-05-09 18:07 | 41.20405 | 1.35562 | 6768 ft | 265 kts | 66° |
| 2026-05-09 18:07 | 41.21405 | 1.37607 | 7528 ft | 267 kts | 41° |
| 2026-05-09 18:08 | 41.23016 | 1.38797 | 8015 ft | 270 kts | 15° |
| 2026-05-09 18:08 | 41.24893 | 1.38855 | 8551 ft | 274 kts | 347° |
| 2026-05-09 18:08 | 41.26746 | 1.38203 | 9320 ft | 280 kts | 355° |
| 2026-05-09 18:08 | 41.28715 | 1.38083 | 10029 ft | 286 kts | 0° |
| 2026-05-09 18:09 | 41.30757 | 1.38006 | 10440 ft | 305 kts | 359° |
| 2026-05-09 18:09 | 41.32964 | 1.37876 | 10614 ft | 330 kts | 358° |
| 2026-05-09 18:09 | 41.35304 | 1.37697 | 10768 ft | 354 kts | 357° |
| 2026-05-09 18:09 | 41.37851 | 1.37472 | 11136 ft | 368 kts | 356° |
| 2026-05-09 18:10 | 41.40427 | 1.37226 | 11821 ft | 372 kts | 355° |
| 2026-05-09 18:10 | 41.42137 | 1.37057 | 12331 ft | 373 kts | 355° |
| 2026-05-09 18:10 | 41.45625 | 1.36706 | 13294 ft | 379 kts | 354° |
| 2026-05-09 18:10 | 41.48235 | 1.36442 | 13933 ft | 383 kts | 354° |
| 2026-05-09 18:11 | 41.50902 | 1.36172 | 14529 ft | 387 kts | 354° |
| 2026-05-09 18:11 | 41.53606 | 1.35899 | 15113 ft | 392 kts | 354° |
| 2026-05-09 18:11 | 41.56343 | 1.35622 | 15709 ft | 396 kts | 354° |
| 2026-05-09 18:11 | 41.59116 | 1.35340 | 16195 ft | 403 kts | 353° |
| 2026-05-09 18:12 | 41.61932 | 1.35052 | 16775 ft | 407 kts | 353° |
| 2026-05-09 18:12 | 41.64767 | 1.34763 | 17374 ft | 411 kts | 353° |
| 2026-05-09 18:12 | 41.67627 | 1.34471 | 17946 ft | 415 kts | 353° |
| 2026-05-09 18:12 | 41.70522 | 1.34175 | 18460 ft | 419 kts | 353° |
| 2026-05-09 18:13 | 41.73440 | 1.33876 | 18933 ft | 423 kts | 353° |
| 2026-05-09 18:13 | 41.76390 | 1.33575 | 19411 ft | 427 kts | 353° |
| 2026-05-09 18:13 | 41.79366 | 1.33270 | 19866 ft | 431 kts | 353° |
| 2026-05-09 18:13 | 41.82369 | 1.32962 | 20306 ft | 435 kts | 353° |
| 2026-05-09 18:14 | 41.85401 | 1.32652 | 20780 ft | 438 kts | 353° |
| 2026-05-09 18:14 | 41.88452 | 1.32339 | 21250 ft | 442 kts | 353° |
| 2026-05-09 18:14 | 41.91528 | 1.32023 | 21699 ft | 445 kts | 353° |
| 2026-05-09 18:14 | 41.94628 | 1.31704 | 22160 ft | 449 kts | 353° |
| 2026-05-09 18:15 | 41.97759 | 1.31381 | 22596 ft | 452 kts | 353° |
| 2026-05-09 18:15 | 42.00906 | 1.31057 | 23028 ft | 455 kts | 354° |
| 2026-05-09 18:15 | 42.04077 | 1.30730 | 23443 ft | 458 kts | 354° |
| 2026-05-09 18:15 | 42.07265 | 1.30401 | 23782 ft | 462 kts | 354° |
| 2026-05-09 18:16 | 42.10480 | 1.30069 | 24118 ft | 465 kts | 354° |
| 2026-05-09 18:16 | 42.13716 | 1.29734 | 24450 ft | 468 kts | 354° |
| 2026-05-09 18:16 | 42.16974 | 1.29397 | 24785 ft | 471 kts | 354° |
| 2026-05-09 18:16 | 42.20251 | 1.29057 | 25141 ft | 474 kts | 354° |
| 2026-05-09 18:17 | 42.23556 | 1.28714 | 25424 ft | 478 kts | 354° |
| 2026-05-09 18:17 | 42.26880 | 1.28368 | 25734 ft | 481 kts | 354° |
| 2026-05-09 18:17 | 42.30228 | 1.28020 | 26021 ft | 484 kts | 354° |
| 2026-05-09 18:17 | 42.33596 | 1.27669 | 26320 ft | 486 kts | 354° |
| 2026-05-09 18:18 | 42.36979 | 1.27317 | 26607 ft | 489 kts | 355° |
| 2026-05-09 18:18 | 42.40379 | 1.26962 | 26885 ft | 492 kts | 355° |
| 2026-05-09 18:18 | 42.43802 | 1.26604 | 27144 ft | 495 kts | 354° |
| 2026-05-09 18:18 | 42.47249 | 1.26244 | 27397 ft | 498 kts | 355° |
| 2026-05-09 18:19 | 42.50709 | 1.25881 | 27619 ft | 501 kts | 355° |
| 2026-05-09 18:19 | 42.57687 | 1.25149 | 28166 ft | 504 kts | 355° |
| 2026-05-09 18:19 | 42.61184 | 1.24781 | 28511 ft | 504 kts | 355° |
| 2026-05-09 18:20 | 42.64678 | 1.24415 | 28881 ft | 504 kts | 355° |
| 2026-05-09 18:20 | 42.68176 | 1.24070 | 29229 ft | 504 kts | 357° |
| 2026-05-09 18:20 | 42.71684 | 1.24234 | 29523 ft | 506 kts | 7° |
| 2026-05-09 18:20 | 42.75148 | 1.25092 | 29839 ft | 506 kts | 15° |
| 2026-05-09 18:21 | 42.78429 | 1.26610 | 30160 ft | 504 kts | 23° |
| 2026-05-09 18:21 | 42.81672 | 1.28395 | 30482 ft | 503 kts | 24° |
| 2026-05-09 18:21 | 42.84910 | 1.30212 | 30775 ft | 503 kts | 24° |
| 2026-05-09 18:21 | 42.88149 | 1.32028 | 31089 ft | 503 kts | 24° |
| 2026-05-09 18:22 | 42.91388 | 1.33829 | 31429 ft | 502 kts | 24° |
| 2026-05-09 18:22 | 42.94621 | 1.35608 | 31762 ft | 501 kts | 24° |
| 2026-05-09 18:22 | 42.97858 | 1.37376 | 32142 ft | 499 kts | 24° |
| 2026-05-09 18:22 | 43.01082 | 1.39131 | 32440 ft | 499 kts | 25° |
| 2026-05-09 18:23 | 43.04318 | 1.40891 | 32600 ft | 502 kts | 24° |
| 2026-05-09 18:23 | 43.07576 | 1.42665 | 32749 ft | 505 kts | 25° |
| 2026-05-09 18:23 | 43.10843 | 1.44444 | 33056 ft | 504 kts | 25° |
| 2026-05-09 18:23 | 43.14091 | 1.46216 | 33439 ft | 502 kts | 25° |
| 2026-05-09 18:24 | 43.17332 | 1.47985 | 33782 ft | 501 kts | 25° |
| 2026-05-09 18:24 | 43.20567 | 1.49756 | 34003 ft | 501 kts | 25° |
| 2026-05-09 18:24 | 43.23807 | 1.51531 | 34207 ft | 502 kts | 25° |
| 2026-05-09 18:25 | 43.30292 | 1.55092 | 34707 ft | 500 kts | 24° |
| 2026-05-09 18:25 | 43.33511 | 1.56861 | 35038 ft | 497 kts | 24° |
| 2026-05-09 18:25 | 43.36722 | 1.58629 | 35270 ft | 497 kts | 24° |
| 2026-05-09 18:25 | 43.39935 | 1.60400 | 35459 ft | 498 kts | 24° |
| 2026-05-09 18:26 | 43.42063 | 1.61575 | 35598 ft | 498 kts | 23° |
| 2026-05-09 18:26 | 43.45279 | 1.63352 | 35780 ft | 499 kts | 23° |
| 2026-05-09 18:26 | 43.48505 | 1.65136 | 35883 ft | 501 kts | 23° |
| 2026-05-09 18:27 | 43.56065 | 1.69324 | 35892 ft | 500 kts | 23° |
| 2026-05-09 18:27 | 43.61414 | 1.72293 | 35889 ft | 497 kts | 23° |
| 2026-05-09 18:28 | 43.67822 | 1.75859 | 35894 ft | 496 kts | 23° |
| 2026-05-09 18:28 | 43.74211 | 1.79423 | 35901 ft | 495 kts | 23° |
| 2026-05-09 18:29 | 43.80597 | 1.82993 | 35907 ft | 495 kts | 23° |
| 2026-05-09 18:29 | 43.86999 | 1.86581 | 35914 ft | 497 kts | 23° |
| 2026-05-09 18:30 | 43.93416 | 1.90185 | 35917 ft | 499 kts | 23° |
| 2026-05-09 18:30 | 43.99860 | 1.93813 | 35918 ft | 500 kts | 23° |
| 2026-05-09 18:31 | 44.06320 | 1.97458 | 35918 ft | 502 kts | 23° |
| 2026-05-09 18:31 | 44.12799 | 2.01122 | 35932 ft | 503 kts | 23° |
| 2026-05-09 18:32 | 44.19289 | 2.04802 | 35930 ft | 504 kts | 23° |
| 2026-05-09 18:32 | 44.25786 | 2.08495 | 35928 ft | 504 kts | 23° |
| 2026-05-09 18:33 | 44.32283 | 2.12196 | 35934 ft | 504 kts | 23° |
| 2026-05-09 18:33 | 44.38777 | 2.15905 | 35944 ft | 504 kts | 23° |
| 2026-05-09 18:34 | 44.45269 | 2.19622 | 35941 ft | 504 kts | 22° |
| 2026-05-09 18:34 | 44.51746 | 2.23339 | 35941 ft | 503 kts | 22° |
| 2026-05-09 18:35 | 44.58199 | 2.26938 | 35944 ft | 502 kts | 21° |
| 2026-05-09 18:35 | 44.64704 | 2.30496 | 35941 ft | 501 kts | 21° |
| 2026-05-09 18:36 | 44.71188 | 2.34057 | 35961 ft | 500 kts | 21° |
| 2026-05-09 18:36 | 44.77656 | 2.37636 | 35962 ft | 499 kts | 21° |
| 2026-05-09 18:37 | 44.84107 | 2.41221 | 35967 ft | 498 kts | 21° |
| 2026-05-09 18:37 | 44.90554 | 2.44812 | 35966 ft | 498 kts | 21° |
| 2026-05-09 18:38 | 44.96986 | 2.48404 | 35971 ft | 497 kts | 21° |
| 2026-05-09 18:38 | 45.03422 | 2.52006 | 35961 ft | 497 kts | 21° |
| 2026-05-09 18:40 | 45.29190 | 2.66514 | 35969 ft | 499 kts | 21° |
| 2026-05-09 18:41 | 45.35650 | 2.70174 | 35972 ft | 500 kts | 21° |
| 2026-05-09 18:41 | 45.42122 | 2.73850 | 35956 ft | 501 kts | 21° |
| 2026-05-09 18:42 | 45.48592 | 2.77533 | 35953 ft | 501 kts | 21° |
| 2026-05-09 18:42 | 45.55054 | 2.81221 | 35956 ft | 501 kts | 21° |
| 2026-05-09 18:43 | 45.61478 | 2.84897 | 35944 ft | 501 kts | 21° |
| 2026-05-09 18:43 | 45.67944 | 2.88606 | 35932 ft | 500 kts | 21° |
| 2026-05-09 18:44 | 45.74400 | 2.92318 | 35952 ft | 500 kts | 21° |
| 2026-05-09 18:44 | 45.80847 | 2.96034 | 35939 ft | 500 kts | 20° |
| 2026-05-09 18:45 | 45.87296 | 2.99761 | 35930 ft | 499 kts | 20° |
| 2026-05-09 18:45 | 45.93735 | 3.03492 | 35933 ft | 498 kts | 20° |
| 2026-05-09 18:46 | 46.00161 | 3.07224 | 35930 ft | 498 kts | 20° |
| 2026-05-09 18:46 | 46.06586 | 3.10965 | 35915 ft | 498 kts | 20° |
| 2026-05-09 18:47 | 46.13008 | 3.14714 | 35914 ft | 498 kts | 20° |
| 2026-05-09 18:47 | 46.19423 | 3.18468 | 35918 ft | 498 kts | 20° |
| 2026-05-09 18:48 | 46.25840 | 3.22233 | 35903 ft | 497 kts | 20° |
| 2026-05-09 18:48 | 46.32245 | 3.26000 | 35908 ft | 497 kts | 20° |
| 2026-05-09 18:49 | 46.38635 | 3.29768 | 35914 ft | 496 kts | 20° |
| 2026-05-09 18:49 | 46.45019 | 3.33542 | 35904 ft | 495 kts | 20° |
| 2026-05-09 18:50 | 46.51399 | 3.37324 | 35907 ft | 495 kts | 20° |
| 2026-05-09 18:50 | 46.57766 | 3.41107 | 35910 ft | 494 kts | 20° |
| 2026-05-09 18:51 | 46.63999 | 3.45160 | 35903 ft | 496 kts | 30° |
| 2026-05-09 18:51 | 46.69411 | 3.51326 | 35927 ft | 495 kts | 44° |
| 2026-05-09 18:52 | 46.74360 | 3.58324 | 35910 ft | 496 kts | 45° |
| 2026-05-09 18:52 | 46.79299 | 3.65332 | 35922 ft | 496 kts | 44° |
| 2026-05-09 18:53 | 46.84275 | 3.72305 | 35923 ft | 496 kts | 44° |
| 2026-05-09 18:53 | 46.89268 | 3.79270 | 35925 ft | 497 kts | 44° |
| 2026-05-09 18:54 | 46.94266 | 3.86255 | 35933 ft | 497 kts | 44° |
| 2026-05-09 18:54 | 46.99266 | 3.93266 | 35938 ft | 498 kts | 44° |
| 2026-05-09 18:55 | 47.04264 | 4.00297 | 35929 ft | 498 kts | 44° |
| 2026-05-09 18:55 | 47.09263 | 4.07349 | 35943 ft | 499 kts | 44° |
| 2026-05-09 18:56 | 47.14262 | 4.14420 | 35933 ft | 499 kts | 44° |
| 2026-05-09 18:56 | 47.19255 | 4.21502 | 35946 ft | 499 kts | 44° |
| 2026-05-09 18:57 | 47.24243 | 4.28597 | 35947 ft | 499 kts | 44° |
| 2026-05-09 18:57 | 47.29189 | 4.35651 | 35955 ft | 498 kts | 44° |
| 2026-05-09 18:58 | 47.34190 | 4.42805 | 35958 ft | 498 kts | 44° |
| 2026-05-09 18:58 | 47.39124 | 4.49881 | 35966 ft | 498 kts | 44° |
| 2026-05-09 18:59 | 47.44082 | 4.57010 | 35965 ft | 497 kts | 44° |
| 2026-05-09 18:59 | 47.49028 | 4.64144 | 35964 ft | 497 kts | 44° |
| 2026-05-09 19:00 | 47.53968 | 4.71288 | 35964 ft | 497 kts | 44° |
| 2026-05-09 19:00 | 47.61370 | 4.82030 | 35974 ft | 497 kts | 44° |
| 2026-05-09 19:01 | 47.66306 | 4.89219 | 35977 ft | 497 kts | 44° |
| 2026-05-09 19:01 | 47.71240 | 4.96425 | 35988 ft | 498 kts | 44° |
| 2026-05-09 19:02 | 47.76173 | 5.03649 | 35976 ft | 498 kts | 44° |
| 2026-05-09 19:02 | 47.81102 | 5.10890 | 35972 ft | 498 kts | 44° |
| 2026-05-09 19:03 | 47.86032 | 5.18149 | 35980 ft | 498 kts | 44° |
| 2026-05-09 19:03 | 47.91338 | 5.24700 | 35990 ft | 494 kts | 29° |
| 2026-05-09 19:04 | 47.97552 | 5.28869 | 35997 ft | 488 kts | 16° |
| 2026-05-09 19:04 | 48.03977 | 5.32189 | 35982 ft | 489 kts | 15° |
| 2026-05-09 19:05 | 48.10407 | 5.35539 | 35997 ft | 489 kts | 16° |
| 2026-05-09 19:05 | 48.16827 | 5.38966 | 35988 ft | 490 kts | 16° |
| 2026-05-09 19:06 | 48.23245 | 5.42434 | 35984 ft | 490 kts | 16° |
| 2026-05-09 19:06 | 48.29667 | 5.45918 | 35985 ft | 491 kts | 16° |
| 2026-05-09 19:07 | 48.36092 | 5.49410 | 35983 ft | 491 kts | 16° |
| 2026-05-09 19:07 | 48.42471 | 5.52883 | 35995 ft | 491 kts | 16° |
| 2026-05-09 19:08 | 48.48895 | 5.56389 | 35988 ft | 491 kts | 16° |
| 2026-05-09 19:08 | 48.55326 | 5.59910 | 35999 ft | 492 kts | 16° |
| 2026-05-09 19:09 | 48.61755 | 5.63439 | 35991 ft | 492 kts | 16° |
| 2026-05-09 19:09 | 48.68183 | 5.66977 | 35987 ft | 491 kts | 16° |
| 2026-05-09 19:10 | 48.74598 | 5.70518 | 35992 ft | 490 kts | 16° |
| 2026-05-09 19:10 | 48.81000 | 5.74060 | 35997 ft | 489 kts | 16° |
| 2026-05-09 19:11 | 48.87316 | 5.77570 | 36000 ft | 479 kts | 16° |
| 2026-05-09 19:11 | 48.93641 | 5.81083 | 36027 ft | 488 kts | 16° |
| 2026-05-09 19:12 | 49.00048 | 5.84654 | 36001 ft | 491 kts | 15° |
| 2026-05-09 19:12 | 49.06458 | 5.88242 | 36004 ft | 490 kts | 15° |
| 2026-05-09 19:13 | 49.12828 | 5.91819 | 35992 ft | 486 kts | 15° |
| 2026-05-09 19:13 | 49.19162 | 5.95382 | 36013 ft | 484 kts | 15° |
| 2026-05-09 19:14 | 49.25482 | 5.98946 | 36013 ft | 484 kts | 15° |
| 2026-05-09 19:14 | 49.30723 | 6.01909 | 36022 ft | 483 kts | 15° |
| 2026-05-09 19:15 | 49.37027 | 6.05483 | 36044 ft | 483 kts | 15° |
| 2026-05-09 19:15 | 49.43350 | 6.09075 | 36037 ft | 484 kts | 16° |
| 2026-05-09 19:16 | 49.49806 | 6.11590 | 36025 ft | 474 kts | 360° |
| 2026-05-09 19:16 | 49.56338 | 6.11731 | 36022 ft | 469 kts | 354° |
| 2026-05-09 19:17 | 49.62878 | 6.11651 | 36033 ft | 470 kts | 354° |
| 2026-05-09 19:17 | 49.69433 | 6.11629 | 36018 ft | 471 kts | 355° |
| 2026-05-09 19:18 | 49.75991 | 6.11655 | 36028 ft | 471 kts | 355° |
| 2026-05-09 19:18 | 49.82511 | 6.11695 | 36035 ft | 472 kts | 355° |
| 2026-05-09 19:19 | 49.89081 | 6.11735 | 35855 ft | 474 kts | 355° |
| 2026-05-09 19:19 | 49.92376 | 6.11755 | 35536 ft | 474 kts | 355° |
| 2026-05-09 19:19 | 49.95675 | 6.11774 | 34874 ft | 473 kts | 355° |
| 2026-05-09 19:20 | 49.98952 | 6.11795 | 34278 ft | 469 kts | 355° |
| 2026-05-09 19:20 | 50.02197 | 6.11818 | 33625 ft | 464 kts | 355° |
| 2026-05-09 19:20 | 50.05419 | 6.11838 | 32982 ft | 462 kts | 355° |
| 2026-05-09 19:20 | 50.08624 | 6.11856 | 32326 ft | 459 kts | 355° |
| 2026-05-09 19:21 | 50.11825 | 6.11872 | 31691 ft | 462 kts | 355° |
| 2026-05-09 19:21 | 50.15046 | 6.11887 | 31075 ft | 465 kts | 355° |
| 2026-05-09 19:21 | 50.18295 | 6.11902 | 30461 ft | 467 kts | 355° |
| 2026-05-09 19:21 | 50.21546 | 6.11920 | 29811 ft | 467 kts | 354° |
| 2026-05-09 19:22 | 50.24787 | 6.11940 | 29114 ft | 465 kts | 355° |
| 2026-05-09 19:22 | 50.28023 | 6.11960 | 28443 ft | 465 kts | 355° |
| 2026-05-09 19:22 | 50.31286 | 6.11976 | 27786 ft | 472 kts | 355° |
| 2026-05-09 19:22 | 50.34589 | 6.11991 | 27137 ft | 478 kts | 355° |
| 2026-05-09 19:23 | 50.37925 | 6.12009 | 26499 ft | 480 kts | 355° |
| 2026-05-09 19:23 | 50.41269 | 6.12029 | 25883 ft | 481 kts | 356° |
| 2026-05-09 19:23 | 50.44619 | 6.12050 | 25274 ft | 482 kts | 356° |
| 2026-05-09 19:23 | 50.47978 | 6.12072 | 24686 ft | 483 kts | 356° |
| 2026-05-09 19:24 | 50.51340 | 6.12093 | 24120 ft | 483 kts | 356° |
| 2026-05-09 19:24 | 50.54702 | 6.12114 | 23526 ft | 484 kts | 357° |
| 2026-05-09 19:24 | 50.58070 | 6.12134 | 22844 ft | 481 kts | 357° |
| 2026-05-09 19:24 | 50.61389 | 6.12156 | 22175 ft | 475 kts | 357° |
| 2026-05-09 19:25 | 50.64678 | 6.12178 | 21528 ft | 469 kts | 357° |
| 2026-05-09 19:25 | 50.67911 | 6.12199 | 20884 ft | 461 kts | 357° |
| 2026-05-09 19:25 | 50.71092 | 6.12219 | 20257 ft | 453 kts | 357° |
| 2026-05-09 19:25 | 50.74217 | 6.12238 | 19661 ft | 446 kts | 358° |
| 2026-05-09 19:26 | 50.77291 | 6.12256 | 19055 ft | 439 kts | 358° |
| 2026-05-09 19:26 | 50.80327 | 6.12273 | 18466 ft | 433 kts | 358° |
| 2026-05-09 19:26 | 50.83319 | 6.12290 | 17815 ft | 427 kts | 358° |
| 2026-05-09 19:26 | 50.86273 | 6.12307 | 17152 ft | 422 kts | 358° |
| 2026-05-09 19:27 | 50.89195 | 6.12406 | 16531 ft | 418 kts | 4° |
| 2026-05-09 19:27 | 50.92012 | 6.13394 | 16129 ft | 412 kts | 15° |
| 2026-05-09 19:27 | 50.94710 | 6.14800 | 15642 ft | 405 kts | 17° |
| 2026-05-09 19:27 | 50.97351 | 6.16276 | 15153 ft | 400 kts | 17° |
| 2026-05-09 19:28 | 50.99950 | 6.17756 | 14665 ft | 395 kts | 18° |
| 2026-05-09 19:28 | 51.02507 | 6.19227 | 14296 ft | 387 kts | 18° |
| 2026-05-09 19:28 | 51.05014 | 6.20680 | 13936 ft | 380 kts | 18° |
| 2026-05-09 19:28 | 51.07478 | 6.22118 | 13547 ft | 375 kts | 18° |
| 2026-05-09 19:29 | 51.09906 | 6.23542 | 13144 ft | 369 kts | 18° |
| 2026-05-09 19:29 | 51.12302 | 6.24954 | 12748 ft | 365 kts | 18° |
| 2026-05-09 19:29 | 51.14662 | 6.26353 | 12366 ft | 360 kts | 18° |
| 2026-05-09 19:29 | 51.16966 | 6.27725 | 11988 ft | 353 kts | 18° |
| 2026-05-09 19:30 | 51.19251 | 6.29098 | 11591 ft | 341 kts | 18° |
| 2026-05-09 19:30 | 51.21434 | 6.30424 | 11217 ft | 331 kts | 18° |
| 2026-05-09 19:30 | 51.23509 | 6.31696 | 10966 ft | 318 kts | 18° |
| 2026-05-09 19:30 | 51.25535 | 6.32947 | 10704 ft | 307 kts | 18° |
| 2026-05-09 19:31 | 51.27493 | 6.34167 | 10455 ft | 297 kts | 18° |
| 2026-05-09 19:31 | 51.29385 | 6.35355 | 10204 ft | 289 kts | 18° |
| 2026-05-09 19:31 | 51.31214 | 6.36512 | 10053 ft | 276 kts | 18° |
| 2026-05-09 19:31 | 51.32968 | 6.37632 | 9847 ft | 268 kts | 18° |
| 2026-05-09 19:32 | 51.34694 | 6.38736 | 9468 ft | 266 kts | 18° |
| 2026-05-09 19:32 | 51.36406 | 6.39824 | 9100 ft | 264 kts | 18° |
| 2026-05-09 19:32 | 51.38114 | 6.40897 | 8726 ft | 262 kts | 18° |
| 2026-05-09 19:32 | 51.39809 | 6.41946 | 8365 ft | 260 kts | 18° |
| 2026-05-09 19:33 | 51.41498 | 6.42978 | 8006 ft | 259 kts | 18° |
| 2026-05-09 19:33 | 51.43176 | 6.43992 | 7657 ft | 257 kts | 18° |
| 2026-05-09 19:33 | 51.44842 | 6.44989 | 7315 ft | 255 kts | 18° |
| 2026-05-09 19:33 | 51.46499 | 6.45968 | 7000 ft | 252 kts | 18° |
| 2026-05-09 19:34 | 51.48127 | 6.46919 | 6665 ft | 246 kts | 18° |
| 2026-05-09 19:34 | 51.49724 | 6.47838 | 6278 ft | 241 kts | 18° |
| 2026-05-09 19:34 | 51.51290 | 6.48728 | 5888 ft | 237 kts | 18° |
| 2026-05-09 19:34 | 51.52836 | 6.49592 | 5497 ft | 233 kts | 18° |
| 2026-05-09 19:35 | 51.54358 | 6.50432 | 5114 ft | 230 kts | 18° |
| 2026-05-09 19:35 | 51.55869 | 6.51187 | 4725 ft | 226 kts | 8° |
| 2026-05-09 19:35 | 51.57390 | 6.50915 | 4332 ft | 220 kts | 333° |
| 2026-05-09 19:35 | 51.58509 | 6.49389 | 4081 ft | 207 kts | 306° |
| 2026-05-09 19:36 | 51.59301 | 6.47487 | 3861 ft | 202 kts | 292° |
| 2026-05-09 19:36 | 51.59524 | 6.45309 | 3661 ft | 198 kts | 269° |
| 2026-05-09 19:36 | 51.59539 | 6.43096 | 3457 ft | 198 kts | 270° |
| 2026-05-09 19:36 | 51.59650 | 6.40881 | 3232 ft | 198 kts | 275° |
| 2026-05-09 19:37 | 51.59736 | 6.38679 | 2918 ft | 199 kts | 272° |
| 2026-05-09 19:37 | 51.59783 | 6.36463 | 2635 ft | 197 kts | 272° |
| 2026-05-09 19:37 | 51.59825 | 6.34274 | 2357 ft | 194 kts | 272° |
| 2026-05-09 19:37 | 51.59867 | 6.32117 | 2094 ft | 192 kts | 273° |
| 2026-05-09 19:38 | 51.59911 | 6.29989 | 1832 ft | 189 kts | 274° |
| 2026-05-09 19:38 | 51.59954 | 6.27902 | 1587 ft | 185 kts | 274° |
| 2026-05-09 19:38 | 51.59995 | 6.25884 | 1341 ft | 175 kts | 274° |
| 2026-05-09 19:38 | 51.60034 | 6.24016 | 1117 ft | 161 kts | 274° |
| 2026-05-09 19:39 | 51.60072 | 6.22257 | 907 ft | 155 kts | 274° |
| 2026-05-09 19:39 | 51.60108 | 6.20537 | 693 ft | 154 kts | 274° |
| 2026-05-09 19:39 | 51.60143 | 6.18812 | 518 ft | 155 kts | 274° |
| 2026-05-09 19:39 | 51.60180 | 6.17083 | 317 ft | 154 kts | 273° |
| 2026-05-09 19:40 | 51.60220 | 6.15391 | 121 ft | 149 kts | 273° |
| 2026-05-09 19:40 | 51.60252 | 6.14006 | 111 ft | 78 kts | 272° |
| 2026-05-09 19:40 | 51.60266 | 6.13362 | 113 ft | 51 kts | 272° |
| 2026-05-09 19:40 | 51.60274 | 6.13005 | 110 ft | 11 kts | 267° |
| 2026-05-09 19:41 | 51.60208 | 6.12955 | 108 ft | 12 kts | 182° |
| 2026-05-09 19:41 | 51.60119 | 6.12949 | 107 ft | 13 kts | 184° |
| 2026-05-09 19:41 | 51.60081 | 6.13043 | 107 ft | 11 kts | 94° |
| 2026-05-09 19:41 | 51.60077 | 6.13166 | 107 ft | 11 kts | 92° |
| 2026-05-09 19:42 | 51.60075 | 6.13285 | 110 ft | 11 kts | 91° |
| 2026-05-09 19:42 | 51.60072 | 6.13421 | 111 ft | 14 kts | 92° |
| 2026-05-09 19:42 | 51.60067 | 6.13617 | 111 ft | 21 kts | 92° |
| 2026-05-09 19:42 | 51.60062 | 6.13873 | 113 ft | 24 kts | 91° |
| 2026-05-09 19:43 | 51.60056 | 6.14169 | 110 ft | 27 kts | 92° |
| 2026-05-09 19:43 | 51.60049 | 6.14436 | 110 ft | 21 kts | 92° |
| 2026-05-09 19:43 | 51.60049 | 6.14679 | 109 ft | 21 kts | 91° |
| 2026-05-09 19:43 | 51.60020 | 6.14798 | 111 ft | 11 kts | 171° |
| 2026-05-09 19:44 | 51.59940 | 6.14793 | 111 ft | 8 kts | 182° |
| 2026-05-09 19:44 | 51.59918 | 6.14843 | 112 ft | 6 kts | 92° |
| 2026-05-09 19:44 | 51.59918 | 6.14864 | 112 ft | 0 kts | 91° |
| 2026-05-09 19:44 | 51.59918 | 6.14867 | 112 ft | 0 kts | 91° |